KCJR

Culpeper Regional Airport

Culpeper, Virginia, USA
METAR KCJR 161015Z AUTO 00000KT 10SM OVC060 M06/M08 A3014 RMK AO2 T10631078
Observed Flight Rules
Dec-16 @ 10:15 UTC (43 minutes ago) Visual Flight Rules
Wind Visibility Clouds
Calm 10 miles
  • Overcast at 6,000' AGL
Temperatures Readings
Current -6°C / 21°F
Dewpoint -8°C / 18°F
Humidity 86%
Altimeter 30.14" Hg
Pressure 1021 hPa
Elevation 97
METAR KCJR 161015Z AUTO 00000KT 10SM OVC060 M06/M08 A3014 RMK AO2 T10631078
Observed Flight Rules
Dec-16 @ 10:15 UTC
(43 minutes ago)
VFR
Wind Visibility
Calm 10 miles
Clouds
  • Overcast at 6,000' AGL
Temperature Dewpoint
-6°C / 21°F -8°C / 18°F
Humidity Altimeter Pressure
86% 30.14" Hg 1021 hPa